createdAt,value
2019-03-15T00:02:06.220Z,99304.04
2019-03-15T00:04:34.778Z,99310.30
2019-03-15T00:07:03.162Z,99317.73
2019-03-15T00:09:31.559Z,99325.30
2019-03-15T00:12:02.606Z,99325.63
2019-03-15T00:14:31.999Z,99333.88
2019-03-15T00:17:00.385Z,99344.44
2019-03-15T00:19:31.239Z,99344.92
2019-03-15T00:21:59.665Z,99348.39
2019-03-15T00:24:28.058Z,99352.99
2019-03-15T00:26:58.986Z,99357.28
2019-03-15T00:29:27.468Z,99362.39
2019-03-15T00:31:55.857Z,99365.52
2019-03-15T00:34:28.950Z,99367.84
2019-03-15T00:36:57.335Z,99357.62
2019-03-15T00:39:25.801Z,99372.78
2019-03-15T00:41:54.434Z,99369.47
2019-03-15T00:44:23.786Z,99359.92
2019-03-15T00:46:52.196Z,99370.47
2019-03-15T00:49:23.140Z,99372.46
2019-03-15T00:51:51.535Z,99376.73
2019-03-15T00:54:19.962Z,99383.02
2019-03-15T00:56:48.454Z,99381.35
2019-03-15T00:59:16.919Z,99385.30
2019-03-15T01:01:47.470Z,99398.50
2019-03-15T01:04:16.959Z,99393.23
2019-03-15T01:06:49.502Z,99399.50
2019-03-15T01:09:17.982Z,99413.34
2019-03-15T01:11:46.345Z,99410.69
2019-03-15T01:14:14.773Z,99408.86
2019-03-15T01:16:43.164Z,99417.43
2019-03-15T01:19:11.597Z,99425.67
2019-03-15T01:21:42.681Z,99438.55
2019-03-15T01:24:11.065Z,99441.00
2019-03-15T01:26:39.464Z,99438.87
2019-03-15T01:29:07.837Z,99437.71
2019-03-15T01:31:36.313Z,99442.33
2019-03-15T01:34:04.680Z,99447.42
2019-03-15T01:36:34.169Z,99455.48
2019-03-15T01:39:02.725Z,99464.03
2019-03-15T01:41:31.135Z,99463.39
2019-03-15T01:43:59.530Z,99466.34
2019-03-15T01:46:27.905Z,99479.52
2019-03-15T01:48:56.313Z,99484.95
2019-03-15T01:51:24.798Z,99494.83
2019-03-15T01:53:53.354Z,99494.36
2019-03-15T01:56:22.829Z,99506.86
2019-03-15T01:58:51.234Z,99505.88
2019-03-15T02:01:19.641Z,99512.13
2019-03-15T02:03:51.849Z,99510.78
2019-03-15T02:06:22.285Z,99506.95
2019-03-15T02:08:50.691Z,99503.84
2019-03-15T02:11:19.088Z,99508.44
2019-03-15T02:13:50.026Z,99527.87
2019-03-15T02:16:17.612Z,99532.84
2019-03-15T02:18:46.011Z,99534.45
2019-03-15T02:21:14.442Z,99535.30
2019-03-15T02:23:43.919Z,99527.70
2019-03-15T02:26:12.329Z,99528.55
2019-03-15T02:28:40.720Z,99516.17
2019-03-15T02:31:09.120Z,99520.64
2019-03-15T02:33:37.519Z,99531.83
2019-03-15T02:36:05.892Z,99523.62
2019-03-15T02:38:35.342Z,99529.73
2019-03-15T02:41:05.828Z,99535.19
2019-03-15T02:43:34.287Z,99538.67
2019-03-15T02:46:02.651Z,99527.98
2019-03-15T02:48:31.158Z,99528.46
2019-03-15T02:50:59.564Z,99525.19
2019-03-15T02:53:27.994Z,99537.39
2019-03-15T02:55:56.391Z,99537.22
2019-03-15T02:58:28.811Z,99545.16
2019-03-15T03:00:56.439Z,99549.76
2019-03-15T03:03:24.845Z,99550.44
2019-03-15T03:05:55.962Z,99559.97
2019-03-15T03:08:29.201Z,99563.28
2019-03-15T03:11:00.060Z,99563.45
2019-03-15T03:13:28.450Z,99562.98
2019-03-15T03:15:56.852Z,99567.44
2019-03-15T03:18:25.241Z,99562.61
2019-03-15T03:20:53.639Z,99579.78
2019-03-15T03:23:26.915Z,99575.48
2019-03-15T03:25:55.310Z,99576.13
2019-03-15T03:28:24.751Z,99584.84
2019-03-15T03:30:53.162Z,99579.41
2019-03-15T03:33:21.563Z,99576.94
2019-03-15T03:35:49.939Z,99580.72
2019-03-15T03:38:19.601Z,99583.86
2019-03-15T03:40:48.002Z,99579.70
2019-03-15T03:43:16.416Z,99585.48
2019-03-15T03:45:44.765Z,99587.95
2019-03-15T03:48:15.772Z,99579.36
2019-03-15T03:50:44.302Z,99576.05
2019-03-15T03:53:12.759Z,99578.38
2019-03-15T03:55:42.221Z,99581.48
2019-03-15T03:58:10.679Z,99584.92
2019-03-15T04:00:39.121Z,99588.54
2019-03-15T04:03:07.649Z,99583.30
2019-03-15T04:05:36.033Z,99593.05
2019-03-15T04:08:04.679Z,99596.84
2019-03-15T04:10:36.954Z,99599.00
2019-03-15T04:13:06.395Z,99602.12
2019-03-15T04:15:34.788Z,99605.08
2019-03-15T04:18:06.868Z,99599.48
2019-03-15T04:20:35.197Z,99603.77
2019-03-15T04:23:05.982Z,99607.38
2019-03-15T04:25:34.393Z,99611.00
2019-03-15T04:28:02.804Z,99609.00
2019-03-15T04:30:33.324Z,99614.27
2019-03-15T04:33:02.424Z,99617.12
2019-03-15T04:35:30.844Z,99626.52
2019-03-15T04:37:59.284Z,99627.21
2019-03-15T04:40:27.704Z,99623.72
2019-03-15T04:42:56.098Z,99627.67
2019-03-15T04:45:28.419Z,99636.78
2019-03-15T04:47:56.847Z,99646.52
2019-03-15T04:50:25.278Z,99645.70
2019-03-15T04:52:53.672Z,99634.83
2019-03-15T04:55:22.084Z,99644.23
2019-03-15T04:57:50.473Z,99640.61
2019-03-15T05:00:18.960Z,99636.82
2019-03-15T05:02:48.396Z,99637.29
2019-03-15T05:05:16.852Z,99645.50
2019-03-15T05:07:48.100Z,99645.48
2019-03-15T05:10:19.900Z,99651.27
2019-03-15T05:12:48.920Z,99641.66
2019-03-15T05:15:18.372Z,99646.58
2019-03-15T05:17:47.873Z,99649.73
2019-03-15T05:20:16.282Z,99644.29
2019-03-15T05:22:44.655Z,99645.11
2019-03-15T05:25:13.051Z,99651.56
2019-03-15T05:27:41.536Z,99653.57
2019-03-15T05:30:11.343Z,99656.73
2019-03-15T05:32:39.756Z,99655.46
2019-03-15T05:35:08.640Z,99654.31
2019-03-15T05:37:37.046Z,99649.71
2019-03-15T05:40:07.395Z,99654.18
2019-03-15T05:42:35.779Z,99654.70
2019-03-15T05:45:06.103Z,99651.11
2019-03-15T05:47:34.594Z,99653.25
2019-03-15T05:50:03.697Z,99656.09
2019-03-15T05:52:33.134Z,99651.28
2019-03-15T05:55:01.523Z,99645.50
2019-03-15T05:57:29.911Z,99640.87
2019-03-15T05:59:58.314Z,99648.98
2019-03-15T06:02:26.716Z,99653.75
2019-03-15T06:04:55.122Z,99657.11
2019-03-15T06:07:23.488Z,99651.80
2019-03-15T06:09:51.966Z,99651.16
2019-03-15T06:12:22.794Z,99645.91
2019-03-15T06:14:51.176Z,99650.37
2019-03-15T06:17:19.588Z,99650.58
2019-03-15T06:19:47.967Z,99642.31
2019-03-15T06:22:16.373Z,99640.83
2019-03-15T06:24:45.845Z,99645.30
2019-03-15T06:27:14.245Z,99643.33
2019-03-15T06:29:42.631Z,99648.30
2019-03-15T06:32:11.075Z,99650.30
2019-03-15T06:34:41.572Z,99653.74
2019-03-15T06:37:09.975Z,99650.94
2019-03-15T06:39:41.416Z,99658.21
2019-03-15T06:42:12.166Z,99656.22
2019-03-15T06:44:39.944Z,99647.65
2019-03-15T06:47:12.206Z,99648.32
2019-03-15T06:49:40.611Z,99643.37
2019-03-15T06:52:08.994Z,99643.20
2019-03-15T06:54:37.429Z,99640.56
2019-03-15T06:57:06.554Z,99652.95
2019-03-15T06:59:35.095Z,99654.27
2019-03-15T07:02:20.777Z,99662.19
2019-03-15T07:04:55.563Z,99655.92
2019-03-15T07:07:23.953Z,99659.55
2019-03-15T07:09:52.878Z,99665.82
2019-03-15T07:12:21.266Z,99664.81
2019-03-15T07:14:51.996Z,99653.77
2019-03-15T07:17:20.486Z,99648.17
2019-03-15T07:19:48.859Z,99646.54
2019-03-15T07:22:20.013Z,99646.87
2019-03-15T07:24:48.634Z,99651.14
2019-03-15T07:27:17.031Z,99648.56
2019-03-15T07:29:45.427Z,99645.26
2019-03-15T07:32:13.861Z,99641.63
2019-03-15T07:34:42.247Z,99643.95
2019-03-15T07:37:10.657Z,99640.97
2019-03-15T07:39:39.052Z,99638.98
2019-03-15T07:42:07.445Z,99633.70
2019-03-15T07:44:39.922Z,99626.27
2019-03-15T07:47:08.381Z,99636.51
2019-03-15T07:49:39.193Z,99627.59
2019-03-15T07:52:07.520Z,99620.34
2019-03-15T07:54:38.228Z,99614.56
2019-03-15T07:57:06.284Z,99608.60
2019-03-15T07:59:39.448Z,99599.53
2019-03-15T08:02:07.338Z,99592.57
2019-03-15T08:04:36.175Z,99594.92
2019-03-15T08:07:04.588Z,99601.17
2019-03-15T08:09:32.970Z,99608.27
2019-03-15T08:12:01.753Z,99604.13
2019-03-15T08:14:30.135Z,99593.56
2019-03-15T08:16:58.518Z,99593.41
2019-03-15T08:19:26.913Z,99592.91
2019-03-15T08:21:56.746Z,99591.23
2019-03-15T08:24:25.260Z,99598.64
2019-03-15T08:26:53.672Z,99602.45
2019-03-15T08:29:22.042Z,99586.39
2019-03-15T08:31:50.468Z,99586.92
2019-03-15T08:34:18.990Z,99587.88
2019-03-15T08:36:47.376Z,99593.80
2019-03-15T08:39:17.434Z,99589.78
2019-03-15T08:41:45.838Z,99589.78
2019-03-15T08:44:14.329Z,99595.13
2019-03-15T08:46:42.704Z,99595.13
2019-03-15T08:49:11.114Z,99595.89
2019-03-15T08:51:39.517Z,99597.47
2019-03-15T08:54:07.912Z,99592.74
2019-03-15T08:56:36.293Z,99586.73
2019-03-15T08:59:04.759Z,99594.53
2019-03-15T09:01:33.177Z,99591.54
2019-03-15T09:04:01.583Z,99572.83
2019-03-15T09:06:30.019Z,99569.41
2019-03-15T09:08:58.390Z,99568.69
2019-03-15T09:11:26.783Z,99576.23
2019-03-15T09:13:55.205Z,99566.83
2019-03-15T09:16:24.635Z,99574.56
2019-03-15T09:18:55.448Z,99563.23
2019-03-15T09:21:23.164Z,99543.37
2019-03-15T09:23:51.589Z,99536.84
2019-03-15T09:26:20.001Z,99527.92
2019-03-15T09:28:48.371Z,99510.45
2019-03-15T09:31:16.760Z,99517.55
2019-03-15T09:33:45.149Z,99527.57
2019-03-15T09:36:13.533Z,99533.01
2019-03-15T09:38:41.928Z,99519.73
2019-03-15T09:41:14.159Z,99508.57
2019-03-15T09:43:45.162Z,99510.31
2019-03-15T09:46:12.746Z,99502.30
2019-03-15T09:48:43.743Z,99502.14
2019-03-15T09:51:11.269Z,99507.09
2019-03-15T09:53:39.716Z,99497.67
2019-03-15T09:56:08.123Z,99483.89
2019-03-15T09:58:36.509Z,99464.74
2019-03-15T10:01:05.307Z,99439.30
2019-03-15T10:03:34.106Z,99426.23
2019-03-15T10:06:14.240Z,99420.34
2019-03-15T10:08:35.452Z,99426.12
2019-03-15T10:11:04.803Z,99408.66
2019-03-15T10:13:33.285Z,99420.39
2019-03-15T10:16:02.716Z,99407.16
2019-03-15T10:18:35.161Z,99407.66
2019-03-15T10:21:02.792Z,99409.09
2019-03-15T10:23:31.147Z,99398.57
2019-03-15T10:25:59.512Z,99392.48
2019-03-15T10:28:27.933Z,99382.48
2019-03-15T10:30:56.344Z,99373.08
2019-03-15T10:33:24.780Z,99374.66
2019-03-15T10:35:55.669Z,99359.92
2019-03-15T10:38:26.162Z,99354.17
2019-03-15T10:40:54.596Z,99348.68
2019-03-15T10:43:24.082Z,99342.38
2019-03-15T10:45:52.461Z,99330.48
2019-03-15T10:48:25.558Z,99320.02
2019-03-15T10:50:51.069Z,99312.80
2019-03-15T10:53:22.974Z,99301.63
2019-03-15T10:56:00.190Z,99297.53
2019-03-15T10:58:20.659Z,99284.06
2019-03-15T11:00:49.083Z,99289.92
2019-03-15T11:03:17.485Z,99284.73
2019-03-15T11:05:45.928Z,99275.42
2019-03-15T11:08:14.297Z,99257.30
2019-03-15T11:10:42.728Z,99252.33
2019-03-15T11:13:11.136Z,99248.48
2019-03-15T11:15:39.572Z,99242.16
2019-03-15T11:18:07.999Z,99235.63
2019-03-15T11:20:36.902Z,99228.43
2019-03-15T11:23:05.275Z,99213.12
2019-03-15T11:25:33.666Z,99201.05
2019-03-15T11:28:02.187Z,99191.01
2019-03-15T11:30:31.185Z,99185.42
2019-03-15T11:32:59.577Z,99189.23
2019-03-15T11:35:27.988Z,99174.12
2019-03-15T11:38:02.186Z,99166.95
2019-03-15T11:40:38.045Z,99159.85
2019-03-15T11:43:06.533Z,99152.07
2019-03-15T11:45:34.969Z,99148.20
2019-03-15T11:48:04.456Z,99149.11
2019-03-15T11:50:33.064Z,99139.68
2019-03-15T11:53:02.605Z,99124.31
2019-03-15T11:55:32.104Z,99125.41
2019-03-15T11:58:01.614Z,99119.44
2019-03-15T12:00:30.038Z,99103.95
2019-03-15T12:02:58.431Z,99079.79
2019-03-15T12:05:26.919Z,99113.77
2019-03-15T12:07:55.302Z,99095.76
2019-03-15T12:10:23.735Z,99085.63
2019-03-15T12:12:54.801Z,99079.23
2019-03-15T12:15:23.243Z,99073.19
2019-03-15T12:17:51.625Z,99077.01
2019-03-15T12:20:24.426Z,99061.98
2019-03-15T12:22:52.892Z,99042.17
2019-03-15T12:25:21.354Z,99057.48
2019-03-15T12:27:49.748Z,99042.78
2019-03-15T12:30:18.251Z,99023.55
2019-03-15T12:32:46.607Z,99024.00
2019-03-15T12:35:17.954Z,99035.42
2019-03-15T12:37:47.439Z,99039.20
2019-03-15T12:40:16.961Z,99024.55
2019-03-15T12:42:47.942Z,99021.11
2019-03-15T12:45:16.488Z,99026.09
2019-03-15T12:47:49.943Z,99012.20
2019-03-15T12:50:22.155Z,99012.20
2019-03-15T12:52:50.593Z,99000.29
2019-03-15T12:55:18.979Z,98997.65
2019-03-15T12:57:49.322Z,98997.97
2019-03-15T13:00:21.006Z,98995.33
2019-03-15T13:02:53.240Z,98991.96
2019-03-15T13:05:21.636Z,98985.61
2019-03-15T13:07:50.055Z,98991.03
2019-03-15T13:10:23.761Z,98999.73
2019-03-15T13:12:55.952Z,98981.25
2019-03-15T13:15:24.335Z,98977.59
2019-03-15T13:17:52.748Z,98967.45
2019-03-15T13:20:23.482Z,98965.20
2019-03-15T13:22:51.892Z,98962.10
2019-03-15T13:25:20.285Z,98960.90
2019-03-15T13:27:48.702Z,98958.12
2019-03-15T13:30:22.993Z,98960.00
2019-03-15T13:32:51.449Z,98970.97
2019-03-15T13:35:19.927Z,98968.15
2019-03-15T13:37:50.733Z,98968.33
2019-03-15T13:40:20.573Z,98966.97
2019-03-15T13:42:49.058Z,98970.02
2019-03-15T13:45:17.784Z,98949.05
2019-03-15T13:47:46.234Z,98974.98
2019-03-15T13:50:18.912Z,98978.44
2019-03-15T13:52:47.315Z,98980.19
2019-03-15T13:55:15.761Z,98972.91
2019-03-15T13:57:47.643Z,98985.27
2019-03-15T14:00:22.397Z,98985.87
2019-03-15T14:02:55.514Z,98980.45
2019-03-15T14:05:26.414Z,98980.45
2019-03-15T14:07:54.792Z,98970.56
2019-03-15T14:10:23.281Z,98971.08
2019-03-15T14:12:51.678Z,98981.77
2019-03-15T14:15:20.816Z,98979.67
2019-03-15T14:17:49.225Z,98980.86
2019-03-15T14:20:20.350Z,98988.02
2019-03-15T14:22:49.550Z,99003.88
2019-03-15T14:25:23.521Z,99007.55
2019-03-15T14:27:52.983Z,98999.16
2019-03-15T14:30:25.171Z,98997.44
2019-03-15T14:32:54.505Z,99006.03
2019-03-15T14:35:23.124Z,99014.77
2019-03-15T14:37:52.694Z,99026.33
2019-03-15T14:40:23.694Z,99028.29
2019-03-15T14:42:52.125Z,99024.63
2019-03-15T14:45:20.532Z,99049.56
2019-03-15T14:47:48.946Z,99042.23
2019-03-15T14:50:17.540Z,99044.78
2019-03-15T14:52:45.952Z,99033.91
2019-03-15T14:55:16.842Z,99051.88
2019-03-15T14:57:52.605Z,99070.31
2019-03-15T15:00:20.395Z,99036.81
2019-03-15T15:02:48.778Z,99068.98
2019-03-15T15:05:17.178Z,99060.19
2019-03-15T15:07:46.498Z,99063.91
2019-03-15T15:10:16.153Z,99057.70
2019-03-15T15:12:44.545Z,99056.52
2019-03-15T15:15:15.104Z,99058.53
2019-03-15T15:17:43.487Z,99077.44
2019-03-15T15:20:12.623Z,99071.28
2019-03-15T15:22:41.068Z,99075.62
2019-03-15T15:25:14.979Z,99073.08
2019-03-15T15:27:43.611Z,99079.25
2019-03-15T15:30:13.756Z,99094.77
2019-03-15T15:32:42.137Z,99077.08
2019-03-15T15:35:15.149Z,99094.44
2019-03-15T15:37:46.352Z,99096.81
2019-03-15T15:40:19.584Z,99102.26
2019-03-15T15:42:48.219Z,99093.87
2019-03-15T15:45:16.857Z,99105.48
2019-03-15T15:47:45.258Z,99100.42
2019-03-15T15:50:15.798Z,99094.05
2019-03-15T15:52:44.771Z,99088.83
2019-03-15T15:55:15.268Z,99101.52
2019-03-15T15:57:43.678Z,99101.55
2019-03-15T16:00:19.281Z,99106.50
2019-03-15T16:02:47.766Z,99104.41
2019-03-15T16:05:19.828Z,99081.89
2019-03-15T16:07:48.209Z,99083.70
2019-03-15T16:10:18.169Z,99092.86
2019-03-15T16:12:50.000Z,99090.28
2019-03-15T16:15:19.497Z,99102.01
2019-03-15T16:17:48.904Z,99117.02
2019-03-15T16:20:17.291Z,99126.08
2019-03-15T16:22:45.667Z,99128.67
2019-03-15T16:25:17.615Z,99103.69
2019-03-15T16:27:46.049Z,99120.12
2019-03-15T16:30:19.233Z,99118.89
2019-03-15T16:32:49.612Z,99106.89
2019-03-15T16:35:18.151Z,99102.15
2019-03-15T16:37:46.547Z,99106.31
2019-03-15T16:40:17.257Z,99121.27
2019-03-15T16:42:45.641Z,99118.75
2019-03-15T16:45:27.761Z,99118.34
2019-03-15T16:47:59.592Z,99145.42
2019-03-15T16:50:27.977Z,99136.12
2019-03-15T16:52:56.359Z,99146.72
2019-03-15T16:55:24.749Z,99130.25
2019-03-15T16:57:57.413Z,99140.45
2019-03-15T17:00:25.931Z,99140.84
2019-03-15T17:02:54.373Z,99168.63
2019-03-15T17:05:22.773Z,99147.72
2019-03-15T17:07:53.656Z,99168.75
2019-03-15T17:10:22.069Z,99154.09
2019-03-15T17:12:55.814Z,99159.94
2019-03-15T17:15:28.719Z,99174.44
2019-03-15T17:17:57.297Z,99173.95
2019-03-15T17:20:25.663Z,99169.87
2019-03-15T17:22:54.027Z,99168.63
2019-03-15T17:25:24.107Z,99174.33
2019-03-15T17:27:52.482Z,99172.79
2019-03-15T17:30:20.946Z,99178.94
2019-03-15T17:32:50.303Z,99197.27
2019-03-15T17:35:20.083Z,99198.72
2019-03-15T17:37:48.758Z,99202.74
2019-03-15T17:40:21.783Z,99208.17
2019-03-15T17:42:50.311Z,99190.52
2019-03-15T17:45:18.821Z,99225.03
2019-03-15T17:47:47.678Z,99233.69
2019-03-15T17:50:27.000Z,99231.96
2019-03-15T17:52:56.131Z,99241.22
2019-03-15T17:55:25.590Z,99243.20
2019-03-15T17:57:59.907Z,99234.28
2019-03-15T18:00:45.284Z,99242.41
2019-03-15T18:03:21.510Z,99263.90
2019-03-15T18:05:46.598Z,99265.97
2019-03-15T18:08:18.969Z,99259.55
2019-03-15T18:10:48.415Z,99257.57
2019-03-15T18:13:16.841Z,99255.73
2019-03-15T18:15:45.224Z,99274.12
2019-03-15T18:18:14.589Z,99267.15
2019-03-15T18:20:43.019Z,99268.61
2019-03-15T18:23:11.479Z,99279.84
2019-03-15T18:25:40.976Z,99286.44
2019-03-15T18:28:09.416Z,99277.67
2019-03-15T18:30:37.790Z,99291.36
2019-03-15T18:33:07.288Z,99293.67
2019-03-15T18:35:35.671Z,99310.98
2019-03-15T18:38:04.079Z,99316.62
2019-03-15T18:40:36.001Z,99292.54
2019-03-15T18:43:08.300Z,99321.39
2019-03-15T18:45:36.607Z,99320.73
2019-03-15T18:48:07.499Z,99310.34
2019-03-15T18:50:35.907Z,99317.90
2019-03-15T18:53:04.284Z,99332.06
2019-03-15T18:55:32.662Z,99338.37
2019-03-15T18:58:01.102Z,99343.48
2019-03-15T19:00:29.753Z,99337.73
2019-03-15T19:02:59.980Z,99345.50
2019-03-15T19:05:28.361Z,99350.42
2019-03-15T19:07:57.098Z,99349.25
2019-03-15T19:10:26.444Z,99356.05
2019-03-15T19:12:58.740Z,99344.66
2019-03-15T19:15:27.128Z,99328.47
2019-03-15T19:17:55.534Z,99351.64
2019-03-15T19:20:24.156Z,99371.58
2019-03-15T19:22:56.852Z,99350.80
2019-03-15T19:25:25.315Z,99373.38
2019-03-15T19:27:53.738Z,99364.53
2019-03-15T19:30:22.141Z,99391.19
2019-03-15T19:32:54.636Z,99282.47
2019-03-15T19:35:22.317Z,99384.80
2019-03-15T19:37:50.716Z,99400.33
2019-03-15T19:40:22.976Z,99404.47
2019-03-15T19:42:55.248Z,99406.78
2019-03-15T19:45:23.657Z,99416.18
2019-03-15T19:47:52.067Z,99408.28
2019-03-15T19:50:21.390Z,99421.16
2019-03-15T19:52:49.806Z,99411.28
2019-03-15T19:55:18.336Z,99422.50
2019-03-15T19:57:46.821Z,99423.80
2019-03-15T20:00:16.899Z,99437.87
2019-03-15T20:02:45.951Z,99433.89
2019-03-15T20:05:14.362Z,99446.11
2019-03-15T20:07:42.928Z,99450.56
2019-03-15T20:10:16.147Z,99444.28
2019-03-15T20:12:43.342Z,99466.61
2019-03-15T20:15:16.193Z,99444.96
2019-03-15T20:17:44.629Z,99474.72
2019-03-15T20:20:23.466Z,99483.13
2019-03-15T20:22:53.686Z,99467.42
2019-03-15T20:25:22.133Z,99470.39
2019-03-15T20:27:50.602Z,99477.34
2019-03-15T20:30:26.675Z,99478.78
2019-03-15T20:32:56.666Z,99492.36
2019-03-15T20:35:25.065Z,99499.12
2019-03-15T20:37:53.560Z,99499.11
2019-03-15T20:40:21.939Z,99486.24
2019-03-15T20:42:52.824Z,99493.84
2019-03-15T20:45:29.268Z,99508.71
2019-03-15T20:48:01.506Z,99516.31
2019-03-15T20:50:29.881Z,99508.72
2019-03-15T20:53:08.534Z,99513.99
2019-03-15T20:55:29.039Z,99521.27
2019-03-15T20:57:57.646Z,99530.83
2019-03-15T21:00:35.500Z,99532.68
2019-03-15T21:02:56.221Z,99540.75
2019-03-15T21:05:24.667Z,99527.36
2019-03-15T21:07:54.156Z,99539.06
2019-03-15T21:10:22.558Z,99537.30
2019-03-15T21:12:53.764Z,99536.95
2019-03-15T21:15:22.158Z,99554.30
2019-03-15T21:17:50.577Z,99552.98
2019-03-15T21:20:22.549Z,99560.89
2019-03-15T21:22:50.230Z,99577.74
2019-03-15T21:25:18.614Z,99567.17
2019-03-15T21:27:53.572Z,99560.38
2019-03-15T21:30:20.203Z,99584.02
2019-03-15T21:32:52.324Z,99584.33
2019-03-15T21:35:20.685Z,99602.17
2019-03-15T21:37:49.228Z,99598.20
2019-03-15T21:40:19.956Z,99606.45
2019-03-15T21:42:49.402Z,99615.06
2019-03-15T21:45:17.959Z,99611.41
2019-03-15T21:47:46.342Z,99617.34
2019-03-15T21:50:24.678Z,99620.01
2019-03-15T21:52:54.097Z,99645.09
2019-03-15T21:55:22.484Z,99659.29
2019-03-15T21:57:51.029Z,99652.22
2019-03-15T22:00:20.352Z,99675.31
2019-03-15T22:02:48.753Z,99670.34
2019-03-15T22:05:17.195Z,99656.63
2019-03-15T22:07:45.600Z,99663.88
2019-03-15T22:10:15.023Z,99674.75
2019-03-15T22:12:43.580Z,99678.03
2019-03-15T22:15:13.205Z,99674.75
2019-03-15T22:17:45.397Z,99677.39
2019-03-15T22:20:17.328Z,99677.70
2019-03-15T22:22:46.836Z,99679.36
2019-03-15T22:25:17.973Z,99679.35
2019-03-15T22:27:49.822Z,99686.97
2019-03-15T22:30:16.517Z,99689.80
2019-03-15T22:32:44.993Z,99700.20
2019-03-15T22:35:13.700Z,99697.92
2019-03-15T22:37:42.103Z,99698.88
2019-03-15T22:40:12.753Z,99697.38
2019-03-15T22:42:41.285Z,99715.20
2019-03-15T22:45:11.802Z,99710.42
2019-03-15T22:47:40.217Z,99714.24
2019-03-15T22:50:10.251Z,99734.84
2019-03-15T22:52:41.999Z,99743.80
2019-03-15T22:55:11.969Z,99731.58
2019-03-15T22:57:41.285Z,99737.22
2019-03-15T23:00:23.508Z,99732.62
2019-03-15T23:02:52.119Z,99739.53
2019-03-15T23:05:20.671Z,99734.24
2019-03-15T23:07:49.093Z,99740.55
2019-03-15T23:10:17.525Z,99735.91
2019-03-15T23:12:45.919Z,99740.20
2019-03-15T23:15:14.304Z,99742.14
2019-03-15T23:17:42.732Z,99748.11
2019-03-15T23:20:14.503Z,99757.34
2019-03-15T23:22:42.928Z,99762.66
2019-03-15T23:25:11.369Z,99764.83
2019-03-15T23:27:39.777Z,99767.44
2019-03-15T23:30:17.791Z,99774.86
2019-03-15T23:32:46.179Z,99779.63
2019-03-15T23:35:14.645Z,99786.23
2019-03-15T23:37:43.066Z,99789.97
2019-03-15T23:40:14.929Z,99782.04
2019-03-15T23:42:48.968Z,99786.61
2019-03-15T23:45:17.453Z,99794.69
2019-03-15T23:47:45.930Z,99805.38
2019-03-15T23:50:15.250Z,99803.25
2019-03-15T23:52:44.724Z,99813.27
2019-03-15T23:55:13.307Z,99812.28
2019-03-15T23:57:41.797Z,99813.14
